createdAt,value
2019-05-13T00:01:44.471Z,101553.55
2019-05-13T00:04:16.115Z,101551.48
2019-05-13T00:06:54.105Z,101559.14
2019-05-13T00:09:24.520Z,101560.98
2019-05-13T00:11:57.386Z,101560.95
2019-05-13T00:14:28.844Z,101560.55
2019-05-13T00:17:04.220Z,101564.01
2019-05-13T00:19:36.123Z,101566.28
2019-05-13T00:22:07.833Z,101565.11
2019-05-13T00:24:39.333Z,101562.72
2019-05-13T00:27:11.488Z,101564.64
2019-05-13T00:29:44.398Z,101565.42
2019-05-13T00:32:16.031Z,101566.80
2019-05-13T00:34:47.539Z,101567.81
2019-05-13T00:37:20.119Z,101566.88
2019-05-13T00:39:51.760Z,101575.67
2019-05-13T00:42:24.542Z,101563.50
2019-05-13T00:44:57.329Z,101566.68
2019-05-13T00:47:29.919Z,101562.00
2019-05-13T00:50:04.943Z,101560.38
2019-05-13T00:52:37.412Z,101563.56
2019-05-13T00:55:10.076Z,101569.84
2019-05-13T00:57:43.649Z,101566.75
2019-05-13T01:00:15.307Z,101565.37
2019-05-13T01:02:46.804Z,101569.58
2019-05-13T01:05:23.447Z,101566.88
2019-05-13T01:07:58.503Z,101568.67
2019-05-13T01:10:34.219Z,101570.99
2019-05-13T01:13:08.962Z,101574.34
2019-05-13T01:15:40.584Z,101581.20
2019-05-13T01:18:14.322Z,101574.92
2019-05-13T01:20:46.207Z,101576.58
2019-05-13T01:23:20.908Z,101580.75
2019-05-13T01:25:54.513Z,101584.75
2019-05-13T01:28:26.678Z,101580.31
2019-05-13T01:30:58.285Z,101584.80
2019-05-13T01:33:32.008Z,101585.59
2019-05-13T01:36:05.200Z,101583.94
2019-05-13T01:38:37.140Z,101585.86
2019-05-13T01:41:09.918Z,101583.47
2019-05-13T01:43:43.935Z,101586.53
2019-05-13T01:46:15.274Z,101591.48
2019-05-13T01:48:46.926Z,101590.84
2019-05-13T01:51:19.157Z,101588.53
2019-05-13T01:53:53.267Z,101586.53
2019-05-13T01:56:24.621Z,101586.02
2019-05-13T01:58:57.193Z,101580.67
2019-05-13T02:01:33.692Z,101581.07
2019-05-13T02:04:05.273Z,101576.78
2019-05-13T02:06:37.864Z,101579.61
2019-05-13T02:09:14.166Z,101577.53
2019-05-13T02:11:46.711Z,101583.51
2019-05-13T02:14:18.446Z,101581.42
2019-05-13T02:16:49.995Z,101580.84
2019-05-13T02:19:24.439Z,101581.74
2019-05-13T02:21:55.922Z,101583.82
2019-05-13T02:24:27.584Z,101586.69
2019-05-13T02:27:03.466Z,101584.30
2019-05-13T02:29:34.655Z,101579.07
2019-05-13T02:32:06.151Z,101582.72
2019-05-13T02:34:37.796Z,101580.33
2019-05-13T02:37:12.571Z,101579.33
2019-05-13T02:39:43.008Z,101576.97
2019-05-13T02:42:15.684Z,101575.04
2019-05-13T02:44:47.212Z,101577.44
2019-05-13T02:47:22.600Z,101571.58
2019-05-13T02:49:54.081Z,101576.70
2019-05-13T02:52:26.084Z,101580.30
2019-05-13T02:54:57.645Z,101578.83
2019-05-13T02:57:32.723Z,101578.52
2019-05-13T03:00:06.707Z,101580.38
2019-05-13T03:02:38.282Z,101576.72
2019-05-13T03:05:13.639Z,101578.20
2019-05-13T03:07:46.183Z,101583.67
2019-05-13T03:10:22.170Z,101587.81
2019-05-13T03:12:53.432Z,101583.53
2019-05-13T03:15:26.167Z,101592.16
2019-05-13T03:18:06.853Z,101592.89
2019-05-13T03:20:38.478Z,101591.68
2019-05-13T03:23:13.064Z,101593.14
2019-05-13T03:25:44.252Z,101602.23
2019-05-13T03:28:15.991Z,101592.59
2019-05-13T03:30:56.265Z,101599.97
2019-05-13T03:33:27.958Z,101594.62
2019-05-13T03:35:58.232Z,101600.66
2019-05-13T03:38:32.916Z,101600.91
2019-05-13T03:41:05.561Z,101599.70
2019-05-13T03:43:42.823Z,101598.90
2019-05-13T03:46:13.760Z,101610.56
2019-05-13T03:48:47.458Z,101603.73
2019-05-13T03:51:21.961Z,101610.63
2019-05-13T03:53:53.537Z,101606.88
2019-05-13T03:56:25.480Z,101613.30
2019-05-13T03:58:57.025Z,101614.29
2019-05-13T04:01:32.267Z,101610.69
2019-05-13T04:04:03.294Z,101609.66
2019-05-13T04:06:36.207Z,101612.09
2019-05-13T04:09:22.309Z,101611.48
2019-05-13T04:11:42.352Z,101621.88
2019-05-13T04:14:14.085Z,101620.59
2019-05-13T04:16:45.692Z,101612.65
2019-05-13T04:19:18.243Z,101616.66
2019-05-13T04:21:52.602Z,101614.02
2019-05-13T04:24:23.324Z,101617.30
2019-05-13T04:26:56.855Z,101618.27
2019-05-13T04:29:28.363Z,101618.18
2019-05-13T04:32:02.280Z,101615.84
2019-05-13T04:34:34.279Z,101617.20
2019-05-13T04:37:05.923Z,101616.25
2019-05-13T04:39:47.610Z,101615.18
2019-05-13T04:42:12.407Z,101613.78
2019-05-13T04:44:44.086Z,101613.86
2019-05-13T04:47:15.629Z,101610.93
2019-05-13T04:49:48.860Z,101614.12
2019-05-13T04:52:22.267Z,101616.60
2019-05-13T04:54:54.760Z,101617.09
2019-05-13T04:57:26.350Z,101627.17
2019-05-13T04:59:57.987Z,101626.44
2019-05-13T05:02:55.757Z,101623.69
2019-05-13T05:05:36.127Z,101615.39
2019-05-13T05:08:47.531Z,101614.51
2019-05-13T05:11:52.699Z,101616.54
2019-05-13T05:15:02.867Z,101614.80
2019-05-13T05:17:52.357Z,101613.63
2019-05-13T05:20:52.042Z,101615.98
2019-05-13T05:23:35.519Z,101622.08
2019-05-13T05:26:43.709Z,101621.72
2019-05-13T05:29:42.237Z,101630.09
2019-05-13T05:32:31.861Z,101629.48
2019-05-13T05:35:38.674Z,101631.91
2019-05-13T05:38:31.671Z,101633.11
2019-05-13T05:41:05.460Z,101638.39
2019-05-13T05:43:42.334Z,101632.38
2019-05-13T05:46:14.741Z,101630.33
2019-05-13T05:48:52.960Z,101636.98
2019-05-13T05:51:25.784Z,101635.16
2019-05-13T05:54:02.454Z,101639.34
2019-05-13T05:56:33.798Z,101639.07
2019-05-13T05:59:05.484Z,101633.01
2019-05-13T06:01:41.602Z,101632.34
2019-05-13T06:04:16.037Z,101627.94
2019-05-13T06:06:48.037Z,101632.47
2019-05-13T06:09:21.590Z,101630.02
2019-05-13T06:11:53.946Z,101619.06
2019-05-13T06:14:26.638Z,101629.14
2019-05-13T06:17:02.650Z,101632.20
2019-05-13T06:19:33.708Z,101632.60
2019-05-13T06:22:05.379Z,101632.90
2019-05-13T06:24:38.697Z,101633.87
2019-05-13T06:27:11.830Z,101628.23
2019-05-13T06:29:44.109Z,101629.27
2019-05-13T06:32:22.452Z,101625.11
2019-05-13T06:34:52.296Z,101631.81
2019-05-13T06:37:23.839Z,101620.05
2019-05-13T06:39:56.493Z,101621.91
2019-05-13T06:42:29.035Z,101619.87
2019-05-13T06:45:04.518Z,101614.31
2019-05-13T06:47:36.384Z,101617.97
2019-05-13T06:50:08.148Z,101609.83
2019-05-13T06:52:42.449Z,101608.08
2019-05-13T06:55:17.897Z,101608.78
2019-05-13T06:57:51.735Z,101600.86
2019-05-13T07:00:22.951Z,101598.71
2019-05-13T07:02:54.575Z,101606.98
2019-05-13T07:05:26.204Z,101592.66
2019-05-13T07:07:57.872Z,101599.42
2019-05-13T07:10:31.924Z,101591.32
2019-05-13T07:13:02.962Z,101586.01
2019-05-13T07:15:37.366Z,101590.81
2019-05-13T07:18:08.189Z,101603.00
2019-05-13T07:20:42.400Z,101592.80
2019-05-13T07:23:13.064Z,101594.52
2019-05-13T07:25:44.672Z,101594.53
2019-05-13T07:28:16.291Z,101595.34
2019-05-13T07:30:48.424Z,101594.00
2019-05-13T07:33:21.390Z,101600.73
2019-05-13T07:35:58.051Z,101596.63
2019-05-13T07:38:28.552Z,101599.52
2019-05-13T07:41:04.434Z,101597.55
2019-05-13T07:43:37.181Z,101606.28
2019-05-13T07:46:08.813Z,101594.68
2019-05-13T07:48:41.623Z,101589.72
2019-05-13T07:51:22.174Z,101585.58
2019-05-13T07:53:53.678Z,101581.52
2019-05-13T07:56:25.199Z,101587.23
2019-05-13T07:58:57.064Z,101583.77
2019-05-13T08:01:28.808Z,101585.97
2019-05-13T08:04:02.162Z,101593.03
2019-05-13T08:06:33.785Z,101591.03
2019-05-13T08:09:08.377Z,101596.08
2019-05-13T08:11:58.214Z,101594.98
2019-05-13T08:14:15.269Z,101585.39
2019-05-13T08:16:52.265Z,101577.69
2019-05-13T08:19:26.670Z,101583.91
2019-05-13T08:21:58.263Z,101577.64
2019-05-13T08:24:31.426Z,101578.27
2019-05-13T08:27:04.253Z,101584.36
2019-05-13T08:29:42.188Z,101576.55
2019-05-13T08:32:15.038Z,101583.92
2019-05-13T08:34:52.505Z,101579.72
2019-05-13T08:37:21.669Z,101581.52
2019-05-13T08:39:53.487Z,101580.25
2019-05-13T08:42:25.277Z,101572.80
2019-05-13T08:45:01.881Z,101577.34
2019-05-13T08:47:34.845Z,101575.73
2019-05-13T08:50:11.977Z,101572.67
2019-05-13T08:52:45.019Z,101573.19
2019-05-13T08:55:17.677Z,101567.34
2019-05-13T08:57:53.220Z,101578.23
2019-05-13T09:00:52.538Z,101567.20
2019-05-13T09:03:23.905Z,101573.56
2019-05-13T09:05:59.320Z,101575.17
2019-05-13T09:08:42.435Z,101566.17
2019-05-13T09:11:16.242Z,101566.25
2019-05-13T09:13:51.577Z,101569.05
2019-05-13T09:16:26.202Z,101576.75
2019-05-13T09:19:03.676Z,101566.23
2019-05-13T09:21:34.070Z,101571.56
2019-05-13T09:24:20.640Z,101567.77
2019-05-13T09:26:42.154Z,101565.44
2019-05-13T09:29:13.667Z,101566.21
2019-05-13T09:31:47.464Z,101562.91
2019-05-13T09:34:21.905Z,101565.33
2019-05-13T09:36:58.918Z,101560.80
2019-05-13T09:39:37.179Z,101559.85
2019-05-13T09:42:12.654Z,101562.91
2019-05-13T09:44:52.294Z,101562.02
2019-05-13T09:47:23.133Z,101556.13
2019-05-13T09:49:56.913Z,101560.95
2019-05-13T09:52:28.669Z,101563.92
2019-05-13T09:55:03.378Z,101558.72
2019-05-13T09:57:36.647Z,101562.66
2019-05-13T10:00:11.998Z,101558.23
2019-05-13T10:02:46.234Z,101552.06
2019-05-13T10:05:33.734Z,101550.47
2019-05-13T10:08:22.319Z,101550.59
2019-05-13T10:11:15.631Z,101549.59
2019-05-13T10:13:48.398Z,101556.84
2019-05-13T10:16:23.714Z,101554.97
2019-05-13T10:18:55.548Z,101563.95
2019-05-13T10:21:28.157Z,101559.05
2019-05-13T10:23:59.608Z,101563.33
2019-05-13T10:26:32.242Z,101563.69
2019-05-13T10:29:04.190Z,101556.34
2019-05-13T10:31:36.211Z,101560.00
2019-05-13T10:34:09.489Z,101572.66
2019-05-13T10:36:42.562Z,101566.95
2019-05-13T10:39:14.310Z,101557.15
2019-05-13T10:41:48.935Z,101556.36
2019-05-13T10:44:25.582Z,101563.53
2019-05-13T10:46:57.994Z,101556.46
2019-05-13T10:49:33.127Z,101551.19
2019-05-13T10:52:03.953Z,101546.13
2019-05-13T10:54:41.722Z,101553.73
2019-05-13T10:59:48.366Z,101546.42
2019-05-13T11:02:22.323Z,101533.89
2019-05-13T11:04:54.001Z,101537.69
2019-05-13T11:07:27.298Z,101532.80
2019-05-13T11:10:02.309Z,101536.42
2019-05-13T11:12:34.453Z,101538.76
2019-05-13T11:15:07.245Z,101533.78
2019-05-13T11:17:42.830Z,101525.52
2019-05-13T11:20:15.675Z,101522.69
2019-05-13T11:22:52.199Z,101520.24
2019-05-13T11:25:24.153Z,101515.41
2019-05-13T11:27:58.490Z,101517.77
2019-05-13T11:30:32.005Z,101513.67
2019-05-13T11:33:10.233Z,101515.37
2019-05-13T11:35:59.006Z,101510.26
2019-05-13T11:38:32.669Z,101511.23
2019-05-13T11:41:04.133Z,101505.94
2019-05-13T11:43:35.768Z,101512.53
2019-05-13T11:46:09.402Z,101507.69
2019-05-13T11:48:55.651Z,101503.23
2019-05-13T11:51:31.954Z,101506.05
2019-05-13T11:54:05.054Z,101496.41
2019-05-13T11:56:48.424Z,101498.22
2019-05-13T11:59:14.461Z,101489.87
2019-05-13T12:01:49.093Z,101493.88
2019-05-13T12:04:24.081Z,101493.00
2019-05-13T12:06:55.624Z,101492.24
2019-05-13T12:09:31.967Z,101486.99
2019-05-13T12:12:13.245Z,101482.11
2019-05-13T12:15:18.094Z,101484.14
2019-05-13T12:17:17.498Z,101485.61
2019-05-13T12:19:49.137Z,101489.32
2019-05-13T12:22:22.973Z,101494.62
2019-05-13T12:25:02.108Z,101502.14
2019-05-13T12:27:34.053Z,101494.46
2019-05-13T12:30:08.021Z,101495.30
2019-05-13T12:32:43.766Z,101496.31
2019-05-13T12:35:14.863Z,101495.90
2019-05-13T12:37:53.033Z,101494.72
2019-05-13T12:40:23.199Z,101493.93
2019-05-13T12:42:56.082Z,101489.25
2019-05-13T12:45:30.340Z,101481.02
2019-05-13T12:48:03.701Z,101490.41
2019-05-13T12:50:42.494Z,101474.45
2019-05-13T12:53:16.300Z,101467.30
2019-05-13T12:55:55.746Z,101466.35
2019-05-13T12:58:28.666Z,101470.01
2019-05-13T13:01:07.247Z,101459.16
2019-05-13T13:03:52.108Z,101454.57
2019-05-13T13:06:36.156Z,101452.05
2019-05-13T13:09:03.210Z,101448.87
2019-05-13T13:11:42.559Z,101447.92
2019-05-13T13:14:18.389Z,101458.31
2019-05-13T13:16:53.873Z,101448.67
2019-05-13T13:19:26.098Z,101445.98
2019-05-13T13:22:04.780Z,101444.27
2019-05-13T13:24:33.228Z,101436.08
2019-05-13T13:27:04.666Z,101435.03
2019-05-13T13:29:38.179Z,101430.80
2019-05-13T13:32:13.472Z,101430.88
2019-05-13T13:34:46.968Z,101424.07
2019-05-13T13:37:18.744Z,101416.36
2019-05-13T13:39:55.081Z,101417.32
2019-05-13T13:42:26.660Z,101414.62
2019-05-13T13:44:58.678Z,101420.97
2019-05-13T13:47:33.211Z,101414.72
2019-05-13T13:50:05.697Z,101417.11
2019-05-13T13:52:38.560Z,101413.66
2019-05-13T13:55:15.298Z,101420.94
2019-05-13T13:57:47.055Z,101411.34
2019-05-13T14:00:34.365Z,101411.72
2019-05-13T14:02:56.857Z,101409.77
2019-05-13T14:05:29.649Z,101405.41
2019-05-13T14:06:26.942Z,101544.91
2019-05-13T14:08:03.967Z,101407.63
2019-05-13T14:10:35.714Z,101406.85
2019-05-13T14:13:12.511Z,101404.45
2019-05-13T14:15:45.422Z,101400.63
2019-05-13T14:18:18.268Z,101403.20
2019-05-13T14:20:52.896Z,101399.91
2019-05-13T14:23:23.755Z,101398.11
2019-05-13T14:25:56.514Z,101402.23
2019-05-13T14:28:29.189Z,101398.94
2019-05-13T14:31:02.840Z,101403.39
2019-05-13T14:33:35.541Z,101400.38
2019-05-13T14:36:07.762Z,101393.19
2019-05-13T14:38:39.888Z,101398.00
2019-05-13T14:41:12.443Z,101404.59
2019-05-13T14:43:46.341Z,101402.98
2019-05-13T14:46:23.236Z,101397.69
2019-05-13T14:48:52.443Z,101395.81
2019-05-13T14:51:24.190Z,101392.59
2019-05-13T14:53:58.106Z,101400.20
2019-05-13T14:56:32.387Z,101397.16
2019-05-13T14:59:04.615Z,101393.98
2019-05-13T15:01:37.531Z,101391.50
2019-05-13T15:04:11.973Z,101397.59
2019-05-13T15:06:42.748Z,101401.98
2019-05-13T15:09:14.344Z,101386.13
2019-05-13T15:11:46.307Z,101394.13
2019-05-13T15:14:18.503Z,101387.76
2019-05-13T15:17:02.366Z,101385.44
2019-05-13T15:19:24.155Z,101387.39
2019-05-13T15:21:56.796Z,101391.62
2019-05-13T15:24:32.298Z,101391.06
2019-05-13T15:27:04.401Z,101389.30
2019-05-13T15:29:36.111Z,101385.66
2019-05-13T15:32:07.837Z,101385.66
2019-05-13T15:34:42.073Z,101390.06
2019-05-13T15:37:13.051Z,101388.05
2019-05-13T15:39:47.817Z,101399.01
2019-05-13T15:42:21.380Z,101411.41
2019-05-13T15:44:53.189Z,101416.59
2019-05-13T15:47:26.922Z,101406.56
2019-05-13T15:50:02.205Z,101415.73
2019-05-13T15:52:36.314Z,101412.98
2019-05-13T15:55:13.644Z,101407.09
2019-05-13T15:57:47.896Z,101407.84
2019-05-13T16:00:32.264Z,101405.70
2019-05-13T16:03:05.000Z,101410.55
2019-05-13T16:05:37.684Z,101403.81
2019-05-13T16:08:11.977Z,101407.11
2019-05-13T16:10:43.810Z,101399.97
2019-05-13T16:13:15.376Z,101406.55
2019-05-13T16:15:47.187Z,101402.53
2019-05-13T16:18:22.215Z,101406.76
2019-05-13T16:20:54.082Z,101413.00
2019-05-13T16:23:27.813Z,101414.05
2019-05-13T16:26:01.615Z,101415.21
2019-05-13T16:28:33.143Z,101411.36
2019-05-13T16:31:07.415Z,101412.86
2019-05-13T16:33:41.584Z,101413.05
2019-05-13T16:36:12.981Z,101424.19
2019-05-13T16:38:51.148Z,101446.57
2019-05-13T16:41:23.513Z,101440.50
2019-05-13T16:43:55.121Z,101437.77
2019-05-13T16:46:28.201Z,101427.56
2019-05-13T16:49:01.411Z,101429.86
2019-05-13T16:51:34.324Z,101433.91
2019-05-13T16:54:06.995Z,101441.70
2019-05-13T16:56:42.066Z,101441.03
2019-05-13T16:59:13.001Z,101439.16
2019-05-13T17:01:45.362Z,101435.59
2019-05-13T17:04:22.741Z,101442.84
2019-05-13T17:06:55.406Z,101434.27
2019-05-13T17:09:28.632Z,101436.02
2019-05-13T17:12:01.375Z,101436.70
2019-05-13T17:14:33.301Z,101428.61
2019-05-13T17:17:06.138Z,101433.41
2019-05-13T17:19:42.307Z,101425.08
2019-05-13T17:22:14.199Z,101415.63
2019-05-13T17:24:47.403Z,101409.38
2019-05-13T17:27:21.354Z,101416.63
2019-05-13T17:29:53.222Z,101419.26
2019-05-13T17:32:25.797Z,101407.72
2019-05-13T17:34:57.398Z,101404.09
2019-05-13T17:37:31.211Z,101411.30
2019-05-13T17:40:02.497Z,101418.53
2019-05-13T17:42:35.173Z,101416.16
2019-05-13T17:45:13.011Z,101419.87
2019-05-13T17:47:45.699Z,101413.47
2019-05-13T17:50:17.818Z,101422.84
2019-05-13T17:52:51.877Z,101435.17
2019-05-13T17:55:25.447Z,101432.21
2019-05-13T17:57:57.264Z,101443.47
2019-05-13T18:00:28.909Z,101444.42
2019-05-13T18:03:01.968Z,101447.02
2019-05-13T18:05:34.158Z,101443.86
2019-05-13T18:08:05.853Z,101452.77
2019-05-13T18:10:38.446Z,101449.40
2019-05-13T18:13:12.448Z,101438.39
2019-05-13T18:15:44.043Z,101442.96
2019-05-13T18:18:21.407Z,101435.23
2019-05-13T18:20:52.239Z,101423.41
2019-05-13T18:23:24.317Z,101422.94
2019-05-13T18:25:56.387Z,101424.23
2019-05-13T18:28:31.274Z,101424.23
2019-05-13T18:31:02.842Z,101428.98
2019-05-13T18:33:35.798Z,101428.27
2019-05-13T18:36:07.623Z,101424.27
2019-05-13T18:38:41.915Z,101426.45
2019-05-13T18:41:13.603Z,101424.33
2019-05-13T18:43:45.173Z,101425.19
2019-05-13T18:46:16.763Z,101422.29
2019-05-13T18:48:58.518Z,101418.41
2019-05-13T18:51:25.808Z,101421.03
2019-05-13T18:53:57.440Z,101417.95
2019-05-13T18:56:32.312Z,101418.96
2019-05-13T18:59:12.328Z,101420.31
2019-05-13T19:01:42.964Z,101416.52
2019-05-13T19:04:14.572Z,101419.36
2019-05-13T19:06:46.288Z,101414.38
2019-05-13T19:09:17.898Z,101419.20
2019-05-13T19:11:53.186Z,101418.33
2019-05-13T19:14:25.097Z,101417.79
2019-05-13T19:16:56.651Z,101424.49
2019-05-13T19:19:28.935Z,101423.45
2019-05-13T19:22:02.185Z,101423.87
2019-05-13T19:24:34.022Z,101423.87
2019-05-13T19:27:07.611Z,101425.98
2019-05-13T19:29:42.418Z,101426.62
2019-05-13T19:32:16.177Z,101423.14
2019-05-13T19:34:48.053Z,101422.84
2019-05-13T19:37:22.228Z,101416.61
2019-05-13T19:39:53.204Z,101419.91
2019-05-13T19:42:24.896Z,101416.20
2019-05-13T19:45:01.947Z,101410.04
2019-05-13T19:47:38.050Z,101411.38
2019-05-13T19:50:09.886Z,101408.77
2019-05-13T19:52:42.564Z,101412.56
2019-05-13T19:55:16.140Z,101409.43
2019-05-13T19:57:47.795Z,101413.74
2019-05-13T20:00:21.192Z,101414.23
2019-05-13T20:02:53.036Z,101410.17
2019-05-13T20:05:24.630Z,101407.48
2019-05-13T20:07:56.231Z,101411.70
2019-05-13T20:10:27.989Z,101413.05
2019-05-13T20:13:01.712Z,101405.92
2019-05-13T20:15:32.966Z,101407.97
2019-05-13T20:18:04.714Z,101401.03
2019-05-13T20:20:41.330Z,101396.95
2019-05-13T20:23:12.955Z,101397.11
2019-05-13T20:25:44.524Z,101390.47
2019-05-13T20:28:16.079Z,101389.13
2019-05-13T20:30:51.485Z,101383.98
2019-05-13T20:33:23.014Z,101383.34
2019-05-13T20:35:56.628Z,101391.91
2019-05-13T20:38:31.861Z,101393.09
2019-05-13T20:41:05.020Z,101388.27
2019-05-13T20:43:36.598Z,101387.72
2019-05-13T20:46:08.189Z,101381.94
2019-05-13T20:48:41.165Z,101382.09
2019-05-13T20:51:13.921Z,101377.69
2019-05-13T20:53:47.504Z,101376.67
2019-05-13T20:56:21.213Z,101376.61
2019-05-13T20:58:57.775Z,101370.54
2019-05-13T21:01:29.295Z,101365.87
2019-05-13T21:04:01.771Z,101369.20
2019-05-13T21:06:33.479Z,101365.42
2019-05-13T21:09:06.408Z,101364.16
2019-05-13T21:11:37.966Z,101362.96
2019-05-13T21:14:09.524Z,101358.23
2019-05-13T21:16:42.275Z,101366.85
2019-05-13T21:19:13.809Z,101363.84
2019-05-13T21:21:47.310Z,101355.00
2019-05-13T21:24:21.339Z,101350.06
2019-05-13T21:26:56.894Z,101346.28
2019-05-13T21:29:35.006Z,101349.98
2019-05-13T21:32:06.523Z,101348.41
2019-05-13T21:34:38.070Z,101346.44
2019-05-13T21:37:16.694Z,101339.17
2019-05-13T21:39:48.259Z,101339.06
2019-05-13T21:42:23.233Z,101340.95
2019-05-13T21:44:55.290Z,101339.17
2019-05-13T21:47:26.863Z,101332.52
2019-05-13T21:49:58.443Z,101334.25
2019-05-13T21:52:32.348Z,101335.60
2019-05-13T21:55:05.593Z,101335.03
2019-05-13T21:57:38.162Z,101335.89
2019-05-13T22:00:12.043Z,101330.53
2019-05-13T22:02:45.143Z,101327.95
2019-05-13T22:05:17.728Z,101324.56
2019-05-13T22:07:49.286Z,101323.98
2019-05-13T22:10:21.617Z,101332.89
2019-05-13T22:12:53.320Z,101336.11
2019-05-13T22:15:26.837Z,101333.34
2019-05-13T22:17:58.423Z,101341.08
2019-05-13T22:20:33.052Z,101336.50
2019-05-13T22:23:04.391Z,101340.85
2019-05-13T22:25:43.702Z,101332.63
2019-05-13T22:28:15.035Z,101326.42
2019-05-13T22:30:46.640Z,101327.58
2019-05-13T22:33:18.132Z,101331.39
2019-05-13T22:35:52.245Z,101333.59
2019-05-13T22:38:24.118Z,101323.41
2019-05-13T22:40:55.672Z,101329.96
2019-05-13T22:43:28.717Z,101329.55
2019-05-13T22:46:00.289Z,101327.72
2019-05-13T22:48:31.994Z,101326.68
2019-05-13T22:51:03.514Z,101322.75
2019-05-13T22:53:35.230Z,101319.36
2019-05-13T22:56:08.759Z,101326.83
2019-05-13T22:58:41.247Z,101316.98
2019-05-13T23:01:12.849Z,101318.31
2019-05-13T23:03:44.415Z,101316.88
2019-05-13T23:06:16.012Z,101321.28
2019-05-13T23:08:49.544Z,101313.16
2019-05-13T23:11:21.942Z,101315.35
2019-05-13T23:14:06.369Z,101310.86
2019-05-13T23:16:26.777Z,101307.80
2019-05-13T23:18:58.356Z,101299.38
2019-05-13T23:21:31.252Z,101294.70
2019-05-13T23:24:04.010Z,101298.09
2019-05-13T23:26:36.616Z,101306.31
2019-05-13T23:29:08.527Z,101299.96
2019-05-13T23:31:41.523Z,101303.25
2019-05-13T23:34:14.320Z,101307.27
2019-05-13T23:36:45.959Z,101303.50
2019-05-13T23:39:18.694Z,101305.20
2019-05-13T23:41:52.330Z,101303.88
2019-05-13T23:44:27.983Z,101302.39
2019-05-13T23:46:58.857Z,101306.79
2019-05-13T23:49:31.749Z,101302.86
2019-05-13T23:52:03.407Z,101291.02
2019-05-13T23:54:35.095Z,101295.14
2019-05-13T23:57:06.644Z,101296.09
2019-05-13T23:59:41.670Z,101297.33
